Time;durP1;ratioP1;P1;durP2;ratioP2;P2;SDS_P1;SDS_P2;PMS_P1;PMS_P2;Temp;Humidity;BMP_temperature;BMP_pressure;BME280_temperature;BME280_humidity;BME280_pressure;Samples;Min_cycle;Max_cycle;Signal;HPM_P1;HPM_P2
2022/07/11 00:02:04;;;;;;;2.55;0.57;;;23.40;47.70;;;;;;5024322;28;20043;-46
2022/07/11 00:04:30;;;;;;;1.48;0.20;;;23.40;47.60;;;;;;5006682;28;20568;-49
2022/07/11 00:06:57;;;;;;;0.93;0.20;;;23.40;47.60;;;;;;5004942;28;20025;-47
2022/07/11 00:09:22;;;;;;;0.80;0.20;;;23.40;47.60;;;;;;5004731;28;20589;-47
2022/07/11 00:11:48;;;;;;;0.82;0.30;;;23.40;47.70;;;;;;5005151;28;20030;-47
2022/07/11 00:14:15;;;;;;;0.50;0.30;;;23.40;47.60;;;;;;5005273;28;20137;-47
2022/07/11 00:16:41;;;;;;;0.70;0.30;;;23.40;47.50;;;;;;5004886;28;20034;-50
2022/07/11 00:19:07;;;;;;;0.93;0.30;;;23.40;47.70;;;;;;5004075;28;20088;-46
2022/07/11 00:21:36;;;;;;;0.90;0.30;;;23.40;47.70;;;;;;5036432;28;20032;-47
2022/07/11 00:24:02;;;;;;;0.90;0.28;;;23.40;47.70;;;;;;5004888;28;20104;-46
2022/07/11 00:26:29;;;;;;;1.08;0.20;;;23.40;47.70;;;;;;5005408;28;20050;-46
2022/07/11 00:28:54;;;;;;;0.85;0.30;;;23.40;47.70;;;;;;5023384;28;20044;-46
2022/07/11 00:31:20;;;;;;;1.15;0.25;;;23.40;47.70;;;;;;5024415;28;20034;-47
2022/07/11 00:33:46;;;;;;;2.20;0.40;;;23.40;47.80;;;;;;5013060;28;20065;-45
2022/07/11 00:36:12;;;;;;;0.73;0.30;;;23.40;47.80;;;;;;5004346;28;20033;-46
2022/07/11 00:38:38;;;;;;;0.75;0.25;;;23.40;47.80;;;;;;5004842;28;20037;-47
2022/07/11 00:41:03;;;;;;;0.80;0.20;;;23.40;47.90;;;;;;5004369;28;20034;-49
2022/07/11 00:43:34;;;;;;;0.90;0.30;;;23.40;47.90;;;;;;5003110;28;20022;-46
2022/07/11 00:46:00;;;;;;;0.63;0.20;;;23.40;47.90;;;;;;5034274;28;20022;-48
2022/07/11 00:48:27;;;;;;;0.77;0.20;;;23.40;47.80;;;;;;5004246;28;20034;-46
2022/07/11 00:50:53;;;;;;;1.45;0.30;;;23.40;47.80;;;;;;5004229;28;20037;-46
2022/07/11 00:53:19;;;;;;;1.00;0.40;;;23.40;47.80;;;;;;5004211;28;20038;-47
2022/07/11 00:55:46;;;;;;;0.77;0.20;;;23.40;47.70;;;;;;5003890;28;20045;-46
2022/07/11 00:58:12;;;;;;;0.20;0.10;;;23.40;47.70;;;;;;5003723;28;20026;-46
2022/07/11 01:00:39;;;;;;;0.35;0.10;;;23.40;47.60;;;;;;5004253;28;20121;-46
2022/07/11 01:03:06;;;;;;;1.08;0.35;;;23.40;47.60;;;;;;5003918;28;20037;-46
2022/07/11 01:05:32;;;;;;;0.70;0.30;;;23.40;47.50;;;;;;5003330;28;20084;-46
2022/07/11 01:07:57;;;;;;;0.45;0.25;;;23.40;47.60;;;;;;5003382;28;20018;-47
2022/07/11 01:10:23;;;;;;;0.88;0.25;;;23.40;47.70;;;;;;5003727;28;20030;-47
2022/07/11 01:12:50;;;;;;;0.98;0.28;;;23.40;47.80;;;;;;5003887;28;20033;-46
2022/07/11 01:15:16;;;;;;;1.67;0.65;;;23.40;47.70;;;;;;5003545;28;20030;-47
2022/07/11 01:17:43;;;;;;;0.80;0.40;;;23.40;47.80;;;;;;5005376;28;20104;-46
2022/07/11 01:20:09;;;;;;;0.85;0.20;;;23.30;47.80;;;;;;5002632;28;20744;-47
2022/07/11 01:22:52;;;;;;;0.45;0.20;;;23.30;47.80;;;;;;5003966;28;20058;-47
2022/07/11 01:25:30;;;;;;;;;;;23.40;47.70;;;;;;5036134;28;20056;-46
2022/07/11 01:27:58;;;;;;;0.52;0.13;;;23.40;47.80;;;;;;5003032;28;20000;-47
2022/07/11 01:30:25;;;;;;;0.10;0.10;;;23.40;47.80;;;;;;5003368;28;20026;-47
2022/07/11 01:32:52;;;;;;;0.55;0.20;;;23.30;47.80;;;;;;5003673;28;20026;-47
2022/07/11 01:35:18;;;;;;;0.73;0.30;;;23.40;47.90;;;;;;5003769;28;20033;-47
2022/07/11 01:37:44;;;;;;;0.90;0.40;;;23.40;47.80;;;;;;5003438;28;20033;-46
2022/07/11 01:40:10;;;;;;;1.08;0.40;;;23.40;47.80;;;;;;5034687;28;20029;-46
2022/07/11 01:42:36;;;;;;;5.20;0.65;;;23.30;47.80;;;;;;5003313;28;20053;-46
2022/07/11 01:45:02;;;;;;;1.73;0.40;;;23.30;47.70;;;;;;5003355;28;20064;-46
2022/07/11 01:47:28;;;;;;;1.08;0.20;;;23.30;48.40;;;;;;5003102;28;20022;-46
2022/07/11 01:49:55;;;;;;;0.73;0.25;;;23.30;47.60;;;;;;5002547;28;20037;-46
2022/07/11 01:52:21;;;;;;;0.65;0.20;;;23.30;47.60;;;;;;5002654;28;20025;-46
2022/07/11 01:54:47;;;;;;;0.63;0.20;;;23.30;47.60;;;;;;5002584;28;20034;-47
2022/07/11 01:57:13;;;;;;;0.77;0.30;;;23.30;47.70;;;;;;5002549;28;20588;-46
2022/07/11 01:59:38;;;;;;;0.75;0.30;;;23.40;47.70;;;;;;5002797;28;20101;-47
2022/07/11 02:02:04;;;;;;;0.90;0.20;;;23.30;47.70;;;;;;5015266;28;20030;-47
2022/07/11 02:04:30;;;;;;;0.77;0.20;;;23.30;47.60;;;;;;5006947;28;20525;-47
2022/07/11 02:06:55;;;;;;;0.40;0.10;;;23.30;47.70;;;;;;5002865;28;20584;-46
2022/07/11 02:09:21;;;;;;;0.93;0.30;;;23.30;47.70;;;;;;5003595;28;20038;-46
2022/07/11 02:11:47;;;;;;;0.40;0.20;;;23.40;47.70;;;;;;5002781;28;20022;-47
2022/07/11 02:14:13;;;;;;;0.73;0.22;;;23.40;47.80;;;;;;5003164;28;20141;-47
2022/07/11 02:16:40;;;;;;;1.17;0.20;;;23.30;47.80;;;;;;5001887;28;20506;-47
2022/07/11 02:19:06;;;;;;;0.40;0.10;;;23.30;47.80;;;;;;5003019;28;20065;-46
2022/07/11 02:21:32;;;;;;;0.75;0.20;;;23.30;47.80;;;;;;5002810;28;20056;-47
2022/07/11 02:23:58;;;;;;;0.38;0.20;;;23.30;47.80;;;;;;5002840;28;20665;-47
2022/07/11 02:26:24;;;;;;;0.55;0.20;;;23.40;47.70;;;;;;5017969;28;20033;-46
2022/07/11 02:28:49;;;;;;;0.47;0.13;;;23.40;47.70;;;;;;5003403;28;20517;-46
2022/07/11 02:31:15;;;;;;;2.03;0.20;;;23.30;47.70;;;;;;5003138;28;20682;-48
2022/07/11 02:33:41;;;;;;;0.73;0.22;;;23.30;47.70;;;;;;5002670;28;20029;-47
2022/07/11 02:36:07;;;;;;;0.20;0.20;;;23.30;47.70;;;;;;5002770;28;20056;-46
2022/07/11 02:38:34;;;;;;;0.30;0.10;;;23.30;47.60;;;;;;5002460;28;20074;-46
2022/07/11 02:41:00;;;;;;;0.47;0.20;;;23.30;47.70;;;;;;5003369;28;20034;-46
2022/07/11 02:43:26;;;;;;;0.82;0.20;;;23.30;47.70;;;;;;5002939;28;20080;-47
2022/07/11 02:45:52;;;;;;;0.88;0.30;;;23.30;47.70;;;;;;5002443;28;20084;-46
2022/07/11 02:48:18;;;;;;;0.32;0.10;;;23.30;47.60;;;;;;5002533;28;20546;-46
2022/07/11 02:50:43;;;;;;;0.80;0.20;;;23.30;47.70;;;;;;5003397;28;20165;-46
2022/07/11 02:53:09;;;;;;;0.60;0.13;;;23.30;47.70;;;;;;5002854;28;20034;-46
2022/07/11 02:55:34;;;;;;;1.33;0.25;;;23.30;47.70;;;;;;5002300;28;20083;-46
2022/07/11 02:58:00;;;;;;;0.52;0.20;;;23.30;47.80;;;;;;5002353;28;20594;-48
2022/07/11 03:00:27;;;;;;;0.50;0.20;;;23.30;47.80;;;;;;5016341;28;20079;-47
2022/07/11 03:02:52;;;;;;;0.28;0.13;;;23.40;47.80;;;;;;5021951;28;20426;-46
2022/07/11 03:05:18;;;;;;;0.70;0.30;;;23.30;47.80;;;;;;5002244;28;20112;-46
2022/07/11 03:07:44;;;;;;;1.13;0.38;;;23.30;47.80;;;;;;5002360;28;20030;-46
2022/07/11 03:10:10;;;;;;;0.77;0.20;;;23.30;47.80;;;;;;5005633;28;20042;-46
2022/07/11 03:12:36;;;;;;;0.35;0.13;;;23.30;47.80;;;;;;5006378;28;20030;-47
2022/07/11 03:15:02;;;;;;;0.57;0.20;;;23.30;48.40;;;;;;5006108;28;20030;-47
2022/07/11 03:17:29;;;;;;;0.70;0.30;;;23.30;47.70;;;;;;5006190;28;20037;-47
2022/07/11 03:19:54;;;;;;;0.65;0.20;;;23.30;47.70;;;;;;5005939;28;20636;-46
2022/07/11 03:22:21;;;;;;;0.73;0.20;;;23.30;47.70;;;;;;5005960;28;20033;-46
2022/07/11 03:24:46;;;;;;;0.75;0.20;;;23.30;47.70;;;;;;5038023;28;20592;-46
2022/07/11 03:27:12;;;;;;;0.75;0.28;;;23.30;47.70;;;;;;5006066;28;20112;-46
2022/07/11 03:29:38;;;;;;;1.05;0.20;;;23.30;47.80;;;;;;5005823;28;20022;-47
2022/07/11 03:32:04;;;;;;;0.20;0.10;;;23.30;47.80;;;;;;5005234;28;20034;-47
2022/07/11 03:34:29;;;;;;;0.65;0.20;;;23.30;47.70;;;;;;5006040;28;20045;-47
2022/07/11 03:36:56;;;;;;;0.25;0.10;;;23.30;47.80;;;;;;5005903;28;20597;-47
2022/07/11 03:39:22;;;;;;;0.25;0.20;;;23.30;47.70;;;;;;5005130;28;20042;-47
2022/07/11 03:41:47;;;;;;;0.30;0.13;;;23.30;47.80;;;;;;5005429;28;20030;-47
2022/07/11 03:44:13;;;;;;;0.50;0.20;;;23.30;47.80;;;;;;5005779;28;20022;-47
2022/07/11 03:46:39;;;;;;;0.45;0.22;;;23.30;47.80;;;;;;5005643;28;20121;-46
2022/07/11 03:49:04;;;;;;;0.38;0.20;;;23.30;47.80;;;;;;5004840;28;20040;-47
2022/07/11 03:51:30;;;;;;;0.70;0.13;;;23.30;47.80;;;;;;5000452;28;20037;-47
2022/07/11 03:53:56;;;;;;;1.35;0.20;;;23.30;47.90;;;;;;5004406;28;20218;-47
2022/07/11 03:56:22;;;;;;;0.30;0.13;;;23.30;47.80;;;;;;5005283;28;20037;-47
2022/07/11 03:58:51;;;;;;;0.50;0.30;;;23.30;47.80;;;;;;5003571;28;20108;-47
2022/07/11 04:01:19;;;;;;;0.73;0.30;;;23.30;47.80;;;;;;5004930;28;20042;-46
2022/07/11 04:03:45;;;;;;;0.28;0.10;;;23.30;47.80;;;;;;5005006;28;20617;-46
2022/07/11 04:06:12;;;;;;;1.02;0.20;;;23.30;47.80;;;;;;5005122;28;20040;-46
2022/07/11 04:08:38;;;;;;;1.17;0.55;;;23.30;47.80;;;;;;5005242;28;20593;-49
2022/07/11 04:11:04;;;;;;;0.50;0.20;;;23.30;47.80;;;;;;5004942;28;20041;-46
2022/07/11 04:13:30;;;;;;;0.40;0.20;;;23.30;47.90;;;;;;5004784;28;20030;-47
2022/07/11 04:15:56;;;;;;;0.50;0.28;;;23.30;48.00;;;;;;5004283;28;20092;-46
2022/07/11 04:18:22;;;;;;;0.50;0.20;;;23.30;47.90;;;;;;5005012;28;20458;-46
2022/07/11 04:20:49;;;;;;;0.77;0.30;;;23.30;47.90;;;;;;5004383;28;20110;-47
2022/07/11 04:23:15;;;;;;;0.52;0.20;;;23.30;47.90;;;;;;5004336;28;20088;-47
2022/07/11 04:25:41;;;;;;;0.35;0.20;;;23.30;47.90;;;;;;5004540;28;20443;-47
2022/07/11 04:28:07;;;;;;;1.05;0.20;;;23.30;48.60;;;;;;5004935;28;20022;-47
2022/07/11 04:30:33;;;;;;;0.60;0.20;;;23.30;47.90;;;;;;5004919;28;20052;-47
2022/07/11 04:32:59;;;;;;;0.98;0.30;;;23.30;47.90;;;;;;5004404;28;20690;-46
2022/07/11 04:35:26;;;;;;;0.70;0.22;;;23.30;47.90;;;;;;5004232;28;20070;-46
2022/07/11 04:37:52;;;;;;;0.88;0.28;;;23.30;47.90;;;;;;5003972;28;20033;-46
2022/07/11 04:40:18;;;;;;;1.08;0.30;;;23.30;47.90;;;;;;5004745;28;20085;-46
2022/07/11 04:42:44;;;;;;;1.30;0.30;;;23.30;47.90;;;;;;5004894;28;20034;-47
2022/07/11 04:45:10;;;;;;;0.98;0.30;;;23.30;48.10;;;;;;5004176;28;20026;-46
2022/07/11 04:47:35;;;;;;;0.45;0.20;;;23.30;47.90;;;;;;5004259;28;20060;-46
2022/07/11 04:50:02;;;;;;;0.40;0.17;;;23.30;47.90;;;;;;5004174;28;20034;-46
2022/07/11 04:52:27;;;;;;;1.40;0.22;;;23.30;47.90;;;;;;5004773;28;20061;-45
2022/07/11 04:54:54;;;;;;;0.52;0.20;;;23.30;47.90;;;;;;5004684;28;20061;-46
2022/07/11 04:57:20;;;;;;;0.65;0.20;;;23.30;48.00;;;;;;5004003;28;20026;-46
2022/07/11 04:59:45;;;;;;;0.28;0.10;;;23.30;48.00;;;;;;5003839;28;20042;-46
2022/07/11 05:02:11;;;;;;;0.40;0.20;;;23.30;48.00;;;;;;5004107;28;20177;-45
2022/07/11 05:04:37;;;;;;;0.70;0.22;;;23.30;48.00;;;;;;5004483;28;20318;-46
2022/07/11 05:07:03;;;;;;;0.25;0.10;;;23.30;48.00;;;;;;5002137;28;20033;-47
2022/07/11 05:09:28;;;;;;;0.55;0.30;;;23.30;48.00;;;;;;5003100;28;20018;-48
2022/07/11 05:11:54;;;;;;;1.02;0.20;;;23.30;48.00;;;;;;5003572;28;20029;-46
2022/07/11 05:14:20;;;;;;;1.85;0.68;;;23.30;48.80;;;;;;5003513;28;20056;-47
2022/07/11 05:16:45;;;;;;;0.25;0.10;;;23.30;48.00;;;;;;5003488;28;20564;-46
2022/07/11 05:19:11;;;;;;;0.50;0.20;;;23.20;47.90;;;;;;4994688;28;20041;-46
2022/07/11 05:21:37;;;;;;;0.73;0.30;;;23.20;48.00;;;;;;4998653;28;20472;-47
2022/07/11 05:24:03;;;;;;;1.85;0.45;;;23.30;48.10;;;;;;5003325;28;20049;-47
2022/07/11 05:26:28;;;;;;;0.70;0.20;;;23.30;48.10;;;;;;5002868;28;20026;-47
2022/07/11 05:28:54;;;;;;;0.88;0.40;;;23.30;48.20;;;;;;5003256;28;20034;-47
2022/07/11 05:31:20;;;;;;;0.40;0.20;;;23.30;48.20;;;;;;5018030;28;20037;-46
2022/07/11 05:33:45;;;;;;;0.70;0.30;;;23.30;48.20;;;;;;5001285;28;20029;-46
2022/07/11 05:36:11;;;;;;;1.17;0.40;;;23.30;48.20;;;;;;4999296;28;20025;-47
2022/07/11 05:38:37;;;;;;;0.47;0.30;;;23.30;48.30;;;;;;5003160;28;20204;-46
2022/07/11 05:41:03;;;;;;;0.80;0.25;;;23.30;48.20;;;;;;5000366;28;20115;-47
2022/07/11 05:43:29;;;;;;;1.00;0.40;;;23.30;48.20;;;;;;5002463;28;20075;-46
2022/07/11 05:45:54;;;;;;;0.35;0.20;;;23.30;48.10;;;;;;5001761;28;20033;-47
2022/07/11 05:48:20;;;;;;;0.80;0.30;;;23.30;48.00;;;;;;5002610;28;20093;-47
2022/07/11 05:50:45;;;;;;;0.40;0.20;;;23.30;48.10;;;;;;5004245;28;20053;-47
2022/07/11 05:53:12;;;;;;;0.40;0.20;;;23.30;48.10;;;;;;5022668;28;20025;-46
2022/07/11 05:55:38;;;;;;;0.73;0.25;;;23.30;48.10;;;;;;5010250;28;20034;-46
2022/07/11 05:58:04;;;;;;;1.60;0.40;;;23.40;48.10;;;;;;4997131;28;20573;-47
2022/07/11 06:00:29;;;;;;;1.77;0.50;;;23.30;48.10;;;;;;4996701;28;20090;-46
2022/07/11 06:02:55;;;;;;;0.55;0.20;;;23.30;48.10;;;;;;4999653;28;20167;-47
2022/07/11 06:05:22;;;;;;;1.00;0.40;;;23.30;48.10;;;;;;4998932;28;20565;-48
2022/07/11 06:10:34;;;;;;;1.35;0.50;;;23.40;48.50;;;;;;4996054;28;20642;-47
2022/07/11 06:13:00;;;;;;;1.27;0.40;;;23.40;48.40;;;;;;4997042;28;20060;-48
2022/07/11 06:15:26;;;;;;;1.10;0.40;;;23.40;48.20;;;;;;4994617;28;20058;-48
2022/07/11 06:17:51;;;;;;;1.17;0.32;;;23.40;48.30;;;;;;4995813;28;20056;-47
2022/07/11 06:20:17;;;;;;;1.75;0.40;;;23.40;48.40;;;;;;4998394;28;20034;-48
2022/07/11 06:22:43;;;;;;;1.65;0.40;;;23.40;48.50;;;;;;4999821;28;20025;-48
2022/07/11 06:25:09;;;;;;;2.78;0.57;;;23.40;48.70;;;;;;4992759;28;20101;-49
2022/07/11 06:27:36;;;;;;;2.05;0.63;;;23.50;49.70;;;;;;5000683;28;20104;-49
2022/07/11 06:30:02;;;;;;;1.85;0.38;;;23.50;49.90;;;;;;5000467;28;20116;-49
2022/07/11 06:32:28;;;;;;;1.75;0.70;;;23.40;50.00;;;;;;5002342;28;20034;-48
2022/07/11 06:34:54;;;;;;;1.55;0.43;;;23.40;49.50;;;;;;5002124;28;20478;-47
2022/07/11 06:37:19;;;;;;;2.08;0.50;;;23.50;49.20;;;;;;5001880;28;20025;-49
2022/07/11 06:39:45;;;;;;;2.20;0.52;;;23.50;49.00;;;;;;5001865;28;20030;-47
2022/07/11 06:42:11;;;;;;;1.00;0.40;;;23.50;48.90;;;;;;5003027;28;20033;-47
2022/07/11 06:44:36;;;;;;;1.13;0.55;;;23.50;48.90;;;;;;5006046;28;20026;-47
2022/07/11 06:47:02;;;;;;;2.25;0.68;;;23.50;48.70;;;;;;5005909;28;20033;-49
2022/07/11 06:49:28;;;;;;;1.13;0.50;;;23.50;48.70;;;;;;5006021;28;20022;-48
2022/07/11 06:51:53;;;;;;;1.50;0.30;;;23.50;48.60;;;;;;5007932;28;20564;-46
2022/07/11 06:54:19;;;;;;;1.40;0.38;;;23.50;48.60;;;;;;5006489;28;20022;-47
2022/07/11 06:56:45;;;;;;;1.13;0.40;;;23.50;48.60;;;;;;5005982;28;20037;-48
2022/07/11 06:59:10;;;;;;;1.80;0.43;;;23.50;48.50;;;;;;5002979;28;20033;-47
2022/07/11 07:01:37;;;;;;;1.38;0.40;;;23.50;48.50;;;;;;5004243;28;20037;-46
2022/07/11 07:04:03;;;;;;;1.30;0.32;;;23.50;48.40;;;;;;5002320;28;20117;-48
2022/07/11 07:06:28;;;;;;;1.48;0.50;;;23.60;48.30;;;;;;5001138;28;20116;-48
2022/07/11 07:08:54;;;;;;;0.90;0.50;;;23.50;48.30;;;;;;5003426;28;20034;-47
2022/07/11 07:11:19;;;;;;;1.10;0.40;;;23.60;48.30;;;;;;5003609;28;20059;-46
2022/07/11 07:13:45;;;;;;;1.17;0.45;;;23.50;48.20;;;;;;5004954;28;20275;-47
2022/07/11 07:16:11;;;;;;;1.27;0.65;;;23.50;48.20;;;;;;5003338;28;20032;-47
2022/07/11 07:18:42;;;;;;;1.77;0.30;;;23.60;48.10;;;;;;5004808;28;20454;-48
2022/07/11 07:21:08;;;;;;;2.78;0.52;;;23.60;48.10;;;;;;5005276;28;20080;-48
2022/07/11 07:23:33;;;;;;;1.42;0.40;;;23.60;48.10;;;;;;5005519;28;20026;-51
2022/07/11 07:25:59;;;;;;;1.83;0.45;;;23.60;48.10;;;;;;5004349;28;20030;-47
2022/07/11 07:28:28;;;;;;;0.77;0.25;;;23.60;48.10;;;;;;5020241;28;20056;-46
2022/07/11 07:30:54;;;;;;;0.90;0.30;;;23.60;48.00;;;;;;5009309;28;20030;-48
2022/07/11 07:33:19;;;;;;;0.77;0.20;;;23.60;48.00;;;;;;5005473;28;20033;-48
2022/07/11 07:35:45;;;;;;;0.63;0.30;;;23.60;47.90;;;;;;5005440;28;20059;-47
2022/07/11 07:38:12;;;;;;;2.38;0.50;;;23.60;47.90;;;;;;5005428;28;20072;-46
2022/07/11 07:40:38;;;;;;;0.93;0.47;;;23.60;47.90;;;;;;5005991;28;20034;-47
2022/07/11 07:43:04;;;;;;;2.05;0.55;;;23.60;47.90;;;;;;5005919;28;20029;-48
2022/07/11 07:45:29;;;;;;;1.17;0.57;;;23.60;47.80;;;;;;5005504;28;20018;-47
2022/07/11 07:47:55;;;;;;;1.45;0.47;;;23.60;48.50;;;;;;5005822;28;20371;-46
2022/07/11 07:50:22;;;;;;;0.88;0.40;;;23.60;47.80;;;;;;5005323;28;20207;-49
2022/07/11 07:52:47;;;;;;;2.90;0.50;;;23.50;47.80;;;;;;5006191;28;20141;-48
2022/07/11 07:55:13;;;;;;;1.45;0.55;;;23.60;47.80;;;;;;5004424;28;20109;-46
2022/07/11 07:57:39;;;;;;;1.23;0.32;;;23.60;47.80;;;;;;5008224;28;20025;-47
2022/07/11 08:02:50;;;;;;;0.52;0.20;;;23.60;47.70;;;;;;5005508;28;20526;-47
2022/07/11 08:05:17;;;;;;;0.85;0.28;;;23.50;47.70;;;;;;5005040;28;20445;-47
2022/07/11 08:07:43;;;;;;;1.35;0.32;;;23.60;47.70;;;;;;5005718;28;20597;-46
2022/07/11 08:10:09;;;;;;;1.40;0.50;;;23.50;47.70;;;;;;5005035;28;20125;-47
2022/07/11 08:12:35;;;;;;;0.55;0.30;;;23.60;47.70;;;;;;5006211;28;20026;-47
2022/07/11 08:15:01;;;;;;;1.05;0.30;;;23.60;47.80;;;;;;5005399;28;20052;-47
2022/07/11 08:17:26;;;;;;;1.40;0.50;;;23.60;47.70;;;;;;5005059;28;20088;-47
2022/07/11 08:19:52;;;;;;;0.73;0.30;;;23.50;47.70;;;;;;5007418;28;20573;-48
2022/07/11 08:22:18;;;;;;;0.88;0.30;;;23.60;47.80;;;;;;5018256;28;20666;-47
2022/07/11 08:24:44;;;;;;;1.30;0.43;;;23.50;47.70;;;;;;5002504;28;20060;-49
2022/07/11 08:27:09;;;;;;;0.55;0.40;;;23.60;47.80;;;;;;5003861;28;20026;-48
2022/07/11 08:29:35;;;;;;;0.50;0.20;;;23.50;47.70;;;;;;5003604;28;20026;-48
2022/07/11 08:32:01;;;;;;;2.10;0.57;;;23.60;47.70;;;;;;5002361;28;20195;-47
2022/07/11 08:34:27;;;;;;;1.38;0.52;;;23.60;47.80;;;;;;5002069;28;20032;-48
2022/07/11 08:36:52;;;;;;;6.72;2.03;;;23.60;48.30;;;;;;4997396;28;20022;-48
2022/07/11 08:39:18;;;;;;;13.48;3.97;;;23.50;48.50;;;;;;5003345;28;20088;-48
2022/07/11 08:41:44;;;;;;;20.63;5.30;;;23.60;48.90;;;;;;5000742;28;20478;-47
2022/07/11 08:44:15;;;;;;;19.60;6.03;;;23.60;49.00;;;;;;5003670;28;20077;-47
2022/07/11 08:46:41;;;;;;;18.42;5.82;;;23.60;48.90;;;;;;5004060;28;20163;-46
2022/07/11 08:49:07;;;;;;;16.55;5.15;;;23.60;48.90;;;;;;4998492;28;20084;-47
2022/07/11 08:51:36;;;;;;;14.88;4.65;;;23.60;48.70;;;;;;5002699;28;20030;-48
2022/07/11 08:54:02;;;;;;;17.17;6.07;;;23.50;48.70;;;;;;5001240;28;20110;-46
2022/07/11 08:56:29;;;;;;;16.05;4.03;;;23.60;48.60;;;;;;5003742;28;20658;-48
2022/07/11 08:58:57;;;;;;;12.43;4.47;;;23.50;48.50;;;;;;5000774;28;20026;-47
2022/07/11 09:01:34;;;;;;;11.75;4.25;;;23.60;49.20;;;;;;5001288;28;20036;-48
2022/07/11 09:04:01;;;;;;;13.35;3.63;;;23.60;48.50;;;;;;5000189;28;20161;-49
2022/07/11 09:06:28;;;;;;;13.63;3.47;;;23.60;48.40;;;;;;5002745;28;20018;-48
2022/07/11 09:08:58;;;;;;;11.73;2.65;;;23.60;48.40;;;;;;5004170;28;20037;-47
2022/07/11 09:11:23;;;;;;;10.27;3.40;;;23.60;48.30;;;;;;5003486;28;20402;-47
2022/07/11 09:13:49;;;;;;;9.13;2.70;;;23.60;48.40;;;;;;5002210;28;20036;-47
2022/07/11 09:16:17;;;;;;;9.07;2.63;;;23.50;48.30;;;;;;5002584;28;20026;-48
2022/07/11 09:18:43;;;;;;;8.77;2.85;;;23.60;48.70;;;;;;5003040;28;20048;-48
2022/07/11 09:26:50;;;;;;;7.70;2.42;;;23.60;49.10;;;;;;5002490;28;20168;-48
2022/07/11 09:29:24;;;;;;;6.65;1.92;;;23.50;49.30;;;;;;5000625;28;20022;-48
2022/07/11 09:31:50;;;;;;;6.47;2.20;;;23.60;49.30;;;;;;5003558;28;20312;-47
2022/07/11 09:34:16;;;;;;;6.05;2.53;;;23.60;49.10;;;;;;5003006;28;20375;-48
2022/07/11 09:36:43;;;;;;;5.60;1.75;;;23.60;49.00;;;;;;5002718;28;20525;-49
2022/07/11 09:39:18;;;;;;;7.32;1.60;;;23.60;48.90;;;;;;5003894;28;20038;-48
2022/07/11 09:41:46;;;;;;;6.68;2.08;;;23.60;49.00;;;;;;5003689;28;20057;-49
2022/07/11 09:44:31;;;;;;;5.35;1.77;;;23.60;49.00;;;;;;5004033;28;20050;-47
2022/07/11 09:46:57;;;;;;;6.10;1.30;;;23.60;49.00;;;;;;5002942;28;20042;-47
2022/07/11 09:49:34;;;;;;;4.55;1.70;;;23.60;48.90;;;;;;5003070;28;20040;-47
2022/07/11 09:52:17;;;;;;;4.80;1.73;;;23.60;48.80;;;;;;4985896;28;20046;-47
2022/07/11 09:55:01;;;;;;;5.07;1.45;;;23.60;48.80;;;;;;4996444;28;20537;-48
2022/07/11 09:57:37;;;;;;;4.40;1.60;;;23.60;48.70;;;;;;5002094;28;20040;-48
2022/07/11 10:00:04;;;;;;;4.72;1.70;;;23.60;48.80;;;;;;5002765;28;20606;-48
2022/07/11 10:02:30;;;;;;;4.15;1.40;;;23.60;48.80;;;;;;5000522;28;20022;-47
2022/07/11 10:04:58;;;;;;;3.78;1.20;;;23.60;48.80;;;;;;5000060;28;20210;-48
2022/07/11 10:07:24;;;;;;;5.05;1.60;;;23.60;48.80;;;;;;4995925;28;20033;-48
2022/07/11 10:09:50;;;;;;;3.17;1.20;;;23.60;48.70;;;;;;4997960;28;20383;-47
2022/07/11 10:12:16;;;;;;;3.50;1.20;;;23.60;48.70;;;;;;4998097;28;20394;-48
2022/07/11 10:14:43;;;;;;;5.03;1.27;;;23.60;48.60;;;;;;4999188;28;20024;-48
2022/07/11 10:17:45;;;;;;;3.92;1.50;;;23.60;48.50;;;;;;5002289;28;20014;-48
2022/07/11 10:20:32;;;;;;;3.50;1.52;;;23.60;48.50;;;;;;4999227;28;20567;-48
2022/07/11 10:22:58;;;;;;;4.45;1.27;;;23.60;48.50;;;;;;5002413;28;20041;-48
2022/07/11 10:25:42;;;;;;;3.03;0.93;;;23.60;48.50;;;;;;5003127;28;20022;-48
2022/07/11 10:28:33;;;;;;;3.35;1.15;;;23.60;48.40;;;;;;5002720;28;20022;-48
2022/07/11 10:30:59;;;;;;;3.45;1.10;;;23.60;48.40;;;;;;5002628;28;20484;-48
2022/07/11 10:33:27;;;;;;;2.67;0.90;;;23.60;48.30;;;;;;5002376;28;20030;-48
2022/07/11 10:35:53;;;;;;;2.88;0.98;;;23.60;48.30;;;;;;5025810;28;20062;-48
2022/07/11 10:38:19;;;;;;;3.35;1.20;;;23.60;48.30;;;;;;5002901;28;20084;-48
2022/07/11 10:40:48;;;;;;;2.95;1.17;;;23.60;48.20;;;;;;5003049;28;20041;-47
2022/07/11 10:43:31;;;;;;;3.13;1.08;;;23.70;48.20;;;;;;5002722;28;20510;-47
2022/07/11 10:45:59;;;;;;;4.35;1.30;;;23.60;48.00;;;;;;5003228;28;20034;-48
2022/07/11 10:48:26;;;;;;;2.33;1.00;;;23.60;48.00;;;;;;5003486;28;20032;-47
2022/07/11 10:51:14;;;;;;;2.05;0.80;;;23.60;48.00;;;;;;5014184;28;20108;-47
2022/07/11 10:53:48;;;;;;;2.60;0.77;;;23.60;48.00;;;;;;5022617;28;20060;-48
2022/07/11 10:56:27;;;;;;;4.22;1.33;;;23.60;48.00;;;;;;5017982;28;20073;-49
2022/07/11 10:59:17;;;;;;;3.53;1.02;;;23.60;48.00;;;;;;5002274;28;20026;-49
2022/07/11 11:02:01;;;;;;;3.00;0.95;;;23.60;47.90;;;;;;5002860;28;20048;-49
2022/07/11 11:04:48;;;;;;;2.38;0.93;;;23.60;47.90;;;;;;5002283;28;20104;-48
2022/07/11 11:07:44;;;;;;;3.22;1.05;;;23.60;47.80;;;;;;5002356;28;20029;-49
2022/07/11 11:10:19;;;;;;;3.25;1.10;;;23.60;47.70;;;;;;4983182;28;20032;-47
2022/07/11 11:13:07;;;;;;;3.58;0.98;;;23.60;47.70;;;;;;4983092;28;20302;-47
2022/07/11 11:15:54;;;;;;;2.45;0.73;;;23.60;47.70;;;;;;4997301;28;20038;-48
2022/07/11 11:18:25;;;;;;;2.80;0.90;;;23.60;47.60;;;;;;4983237;28;20510;-48
2022/07/11 11:20:59;;;;;;;2.47;0.70;;;23.60;47.50;;;;;;4999874;28;20037;-48
2022/07/11 11:23:33;;;;;;;2.53;0.82;;;23.60;47.50;;;;;;5002359;28;20622;-49
2022/07/11 11:26:12;;;;;;;2.75;0.90;;;23.60;47.50;;;;;;4999023;28;20026;-49
2022/07/11 11:28:54;;;;;;;2.70;0.90;;;23.60;47.40;;;;;;4995804;28;20345;-48
2022/07/11 11:31:20;;;;;;;2.55;0.80;;;23.60;47.40;;;;;;5004974;28;20737;-47
2022/07/11 11:33:47;;;;;;;2.10;0.90;;;23.60;47.40;;;;;;5003530;28;20136;-50
2022/07/11 11:36:16;;;;;;;1.70;0.70;;;23.60;47.50;;;;;;4996021;28;20049;-48
2022/07/11 11:38:42;;;;;;;2.33;1.10;;;23.70;47.50;;;;;;5003949;28;20441;-48
2022/07/11 11:41:08;;;;;;;1.92;0.75;;;23.60;47.50;;;;;;5005119;28;20478;-48
2022/07/11 11:43:35;;;;;;;2.88;0.85;;;23.60;47.40;;;;;;5005552;28;20021;-48
2022/07/11 11:46:04;;;;;;;1.95;0.93;;;23.60;47.40;;;;;;5004142;28;20724;-49
2022/07/11 11:48:31;;;;;;;2.70;0.90;;;23.60;47.40;;;;;;5004555;28;20433;-48
2022/07/11 11:51:04;;;;;;;2.45;0.90;;;23.70;47.50;;;;;;5003487;28;20115;-47
2022/07/11 11:53:43;;;;;;;1.50;0.65;;;23.70;47.40;;;;;;5012617;28;20038;-47
2022/07/11 11:56:19;;;;;;;3.97;1.10;;;23.70;47.50;;;;;;5003516;28;20052;-47
2022/07/11 11:58:45;;;;;;;2.08;0.95;;;23.70;47.40;;;;;;5003070;28;20412;-48
2022/07/11 12:01:12;;;;;;;2.17;0.77;;;23.70;47.40;;;;;;5003138;28;20045;-47
2022/07/11 12:03:48;;;;;;;2.90;0.82;;;23.70;47.30;;;;;;5003896;28;20388;-46
2022/07/11 12:06:14;;;;;;;2.42;0.75;;;23.70;47.30;;;;;;5003411;28;20036;-48
2022/07/11 12:08:40;;;;;;;2.17;0.70;;;23.70;47.30;;;;;;5002808;28;20744;-47
2022/07/11 12:11:11;;;;;;;1.77;0.57;;;23.70;47.30;;;;;;5003587;28;20049;-48
2022/07/11 12:13:36;;;;;;;3.42;1.05;;;23.70;47.30;;;;;;5004216;28;20370;-47
2022/07/11 12:18:49;;;;;;;3.33;0.90;;;23.70;47.20;;;;;;5003346;28;20033;-47
2022/07/11 12:21:14;;;;;;;2.42;0.70;;;23.70;47.30;;;;;;5002631;28;20107;-48
2022/07/11 12:23:41;;;;;;;2.17;0.70;;;23.70;47.50;;;;;;5002164;28;20037;-49
2022/07/11 12:26:08;;;;;;;3.00;1.00;;;23.70;47.60;;;;;;4998066;28;20269;-48
2022/07/11 12:28:33;;;;;;;3.53;1.15;;;23.70;47.60;;;;;;5002426;28;20018;-48
2022/07/11 12:31:01;;;;;;;2.10;0.85;;;23.70;47.60;;;;;;5003382;28;20032;-48
2022/07/11 12:33:27;;;;;;;7.18;1.63;;;23.70;47.70;;;;;;5002867;28;20226;-47
2022/07/11 12:36:00;;;;;;;1.80;0.75;;;23.70;47.60;;;;;;5002440;28;20045;-48
2022/07/11 12:38:46;;;;;;;2.35;0.90;;;23.70;47.60;;;;;;5003549;28;20049;-48
2022/07/11 12:41:14;;;;;;;2.00;0.68;;;23.70;47.60;;;;;;5010065;28;20022;-48
2022/07/11 12:46:33;;;;;;;2.22;0.70;;;23.70;47.60;;;;;;5001122;28;20029;-48
2022/07/11 12:49:07;;;;;;;2.67;0.80;;;23.70;47.70;;;;;;4998427;28;20076;-48
2022/07/11 12:51:36;;;;;;;2.28;0.70;;;23.70;47.60;;;;;;5000889;28;20031;-46
2022/07/11 12:54:06;;;;;;;1.73;0.60;;;23.70;47.60;;;;;;5002605;28;20701;-49
2022/07/11 12:56:32;;;;;;;2.08;0.70;;;23.70;47.60;;;;;;5001745;28;20417;-48
2022/07/11 12:58:59;;;;;;;2.22;0.90;;;23.70;47.60;;;;;;5002165;28;20080;-49
2022/07/11 13:01:25;;;;;;;1.85;0.75;;;23.70;47.50;;;;;;5002384;28;20045;-47
2022/07/11 13:03:51;;;;;;;3.00;0.80;;;23.70;47.60;;;;;;5003359;28;20113;-48
2022/07/11 13:06:16;;;;;;;2.50;0.60;;;23.70;47.40;;;;;;5002191;28;20088;-47